Odessa, Washington
Current Conditions -  °F | °C
As of 5:52 PM on Saturday 25 Oct 2014 (Local Time) from KMWH Reporting Station
Broken Clouds Broken Clouds  
Wind Chill: 54°   Ceiling: 10000
Heat Index: 54°   Visibility: 10mi
Dew Point: 49°   Wind: 10mph
Humidity: 83%   Direction: 130°SE
Pressure: 29.46"   Gusts: NA
Location:  47.33°N, 118.69°W
Report Text: KMWH 260052Z 13009KT 10SM BKN100 12/09 A2946 RMK AO2 SLP978 T01220094
Loading
Personal Weather Stations






























Interactive Weather Map
Tropical Storm Tracking
New forecast layout! Learn more

10-Day Weather Forecast

Advertisements
Track Severe Weather on mobile